Time;durP1;ratioP1;P1;durP2;ratioP2;P2;SDS_P1;SDS_P2;PMS_P1;PMS_P2;Temp;Humidity;BMP_temperature;BMP_pressure;BME280_temperature;BME280_humidity;BME280_pressure;Samples;Min_cycle;Max_cycle;Signal;HPM_P1;HPM_P2
2022/06/11 00:01:06;;;;;;;3.33;0.95;;;19.60;72.00;;;;;;4704869;30;20437;-81
2022/06/11 00:03:32;;;;;;;2.55;0.80;;;19.50;71.90;;;;;;4719905;30;20057;-80
2022/06/11 00:05:59;;;;;;;2.75;0.70;;;19.50;71.80;;;;;;4720254;30;20067;-81
2022/06/11 00:08:25;;;;;;;4.90;1.25;;;19.50;71.70;;;;;;4733890;30;20132;-80
2022/06/11 00:10:51;;;;;;;3.08;0.70;;;19.60;71.80;;;;;;4705169;30;20351;-80
2022/06/11 00:13:22;;;;;;;3.55;0.80;;;19.50;71.80;;;;;;4733595;30;20047;-80
2022/06/11 00:15:49;;;;;;;4.90;1.25;;;19.60;71.90;;;;;;4719637;30;20053;-80
2022/06/11 00:18:15;;;;;;;2.28;0.80;;;19.60;71.90;;;;;;4719489;30;20454;-80
2022/06/11 00:20:40;;;;;;;2.53;0.90;;;19.50;71.80;;;;;;4734408;30;20065;-80
2022/06/11 00:23:06;;;;;;;2.65;1.17;;;19.50;71.80;;;;;;4733578;30;20053;-80
2022/06/11 00:25:34;;;;;;;3.17;0.85;;;19.50;71.80;;;;;;4733839;30;20095;-80
2022/06/11 00:28:01;;;;;;;4.25;1.02;;;19.50;71.80;;;;;;4704841;30;20105;-82
2022/06/11 00:30:27;;;;;;;2.72;1.08;;;19.50;71.80;;;;;;4704906;30;20067;-81
2022/06/11 00:32:55;;;;;;;2.70;0.95;;;19.50;71.80;;;;;;4732409;30;20110;-81
2022/06/11 00:35:23;;;;;;;4.13;0.90;;;19.50;71.70;;;;;;4704617;30;20082;-81
2022/06/11 00:37:49;;;;;;;3.05;1.00;;;19.50;71.70;;;;;;4690047;30;20146;-79
2022/06/11 00:40:18;;;;;;;2.72;0.90;;;19.50;71.70;;;;;;4720003;30;20065;-81
2022/06/11 00:42:44;;;;;;;4.00;1.30;;;19.50;71.70;;;;;;4718882;30;20045;-80
2022/06/11 00:45:34;;;;;;;3.58;1.13;;;19.50;71.70;;;;;;4704619;30;20144;-80
2022/06/11 00:48:27;;;;;;;4.10;1.38;;;19.50;71.60;;;;;;4707543;30;20064;-80
2022/06/11 00:51:23;;;;;;;4.43;0.98;;;19.50;71.60;;;;;;4731195;30;20056;-81
2022/06/11 00:53:54;;;;;;;3.88;1.23;;;19.50;71.60;;;;;;4711326;30;20049;-80
2022/06/11 00:56:36;;;;;;;3.47;0.98;;;19.40;71.50;;;;;;4718586;30;20064;-79
2022/06/11 00:59:05;;;;;;;3.55;1.00;;;19.50;71.40;;;;;;4704936;30;20053;-79
2022/06/11 01:01:32;;;;;;;5.70;0.93;;;19.40;71.40;;;;;;4707700;30;20051;-81
2022/06/11 01:04:00;;;;;;;4.55;0.88;;;19.40;71.40;;;;;;4737020;30;20092;-81
2022/06/11 01:06:37;;;;;;;4.05;1.50;;;19.40;71.50;;;;;;4750743;30;20044;-80
2022/06/11 01:09:05;;;;;;;2.63;0.95;;;19.40;71.50;;;;;;4721500;30;20051;-80
2022/06/11 01:12:12;;;;;;;4.78;1.10;;;19.40;71.40;;;;;;4721774;30;20060;-80
2022/06/11 01:15:02;;;;;;;3.90;1.10;;;19.40;71.20;;;;;;4701156;30;20073;-81
2022/06/11 01:17:49;;;;;;;3.38;1.33;;;19.40;71.20;;;;;;4721696;30;20157;-80
2022/06/11 01:20:23;;;;;;;3.90;1.05;;;19.40;71.40;;;;;;4721537;30;20049;-80
2022/06/11 01:23:32;;;;;;;3.92;1.27;;;19.40;71.50;;;;;;4735225;30;20048;-80
2022/06/11 01:26:35;;;;;;;1.88;0.88;;;19.40;71.30;;;;;;4735572;30;20044;-80
2022/06/11 01:29:23;;;;;;;4.32;1.10;;;19.30;71.30;;;;;;4734982;30;20044;-80
2022/06/11 01:32:02;;;;;;;4.78;1.63;;;19.30;71.30;;;;;;4721564;30;20056;-81
2022/06/11 01:35:06;;;;;;;4.72;1.23;;;19.30;71.50;;;;;;4736170;30;20428;-81
2022/06/11 01:37:47;;;;;;;4.43;1.30;;;19.30;71.30;;;;;;4709654;30;20065;-80
2022/06/11 01:40:44;;;;;;;5.93;1.10;;;19.40;71.30;;;;;;4729143;30;20115;-80
2022/06/11 01:43:41;;;;;;;4.65;1.02;;;19.30;71.20;;;;;;4736055;30;20048;-80
2022/06/11 01:46:28;;;;;;;3.90;1.30;;;19.30;71.20;;;;;;4719280;30;20365;-81
2022/06/11 01:48:58;;;;;;;5.30;1.10;;;19.30;71.10;;;;;;4720541;30;20059;-80
2022/06/11 01:51:58;;;;;;;4.93;1.65;;;19.40;71.40;;;;;;4720766;30;20060;-81
2022/06/11 01:55:24;;;;;;;6.63;1.30;;;19.30;71.30;;;;;;4721541;30;20083;-82
2022/06/11 01:58:00;;;;;;;4.13;1.55;;;19.30;71.10;;;;;;4685241;30;20108;-80
2022/06/11 02:00:46;;;;;;;5.07;1.13;;;19.30;71.40;;;;;;4749506;30;20048;-81
2022/06/11 02:03:35;;;;;;;4.70;1.27;;;19.30;71.40;;;;;;4720216;30;20050;-80
2022/06/11 02:06:55;;;;;;;5.45;1.30;;;19.20;70.90;;;;;;4720271;30;20481;-82
2022/06/11 02:10:13;;;;;;;6.30;1.52;;;19.20;71.00;;;;;;4719914;30;20061;-81
2022/06/11 02:12:47;;;;;;;5.07;1.13;;;19.20;71.20;;;;;;4720402;30;20048;-81
2022/06/11 02:15:46;;;;;;;5.85;1.92;;;19.20;71.30;;;;;;4720343;30;20071;-80
2022/06/11 02:18:18;;;;;;;5.43;1.70;;;19.20;71.30;;;;;;4706729;30;20052;-81
2022/06/11 02:20:59;;;;;;;5.22;1.27;;;19.20;71.50;;;;;;4721125;30;20083;-81
2022/06/11 02:23:32;;;;;;;;;;;19.20;71.00;;;;;;4720510;30;20424;-82
2022/06/11 02:26:14;;;;;;;6.43;1.83;;;19.20;71.00;;;;;;4734979;30;19929;-80
2022/06/11 02:28:47;;;;;;;6.40;1.42;;;19.20;71.30;;;;;;4735412;30;20454;-80
2022/06/11 02:31:17;;;;;;;4.05;1.67;;;19.20;71.40;;;;;;4735042;30;20057;-81
2022/06/11 02:33:44;;;;;;;5.30;1.33;;;19.10;71.30;;;;;;4720547;30;20052;-81
2022/06/11 02:36:12;;;;;;;5.40;1.65;;;19.20;71.30;;;;;;4721356;30;20062;-81
2022/06/11 02:38:41;;;;;;;6.70;1.40;;;19.10;71.30;;;;;;4720535;30;20049;-80
2022/06/11 02:41:19;;;;;;;4.78;1.35;;;19.10;71.20;;;;;;4720388;30;20106;-80
2022/06/11 02:43:45;;;;;;;4.25;1.30;;;19.20;71.20;;;;;;4735176;30;20540;-80
2022/06/11 02:49:24;;;;;;;4.47;1.50;;;19.10;71.30;;;;;;4741460;30;20371;-80
2022/06/11 02:51:59;;;;;;;4.25;1.60;;;19.10;71.20;;;;;;4688155;30;20136;-81
2022/06/11 02:54:26;;;;;;;4.75;1.55;;;19.10;71.30;;;;;;4703197;30;20084;-82
2022/06/11 02:56:59;;;;;;;8.23;1.50;;;19.00;71.40;;;;;;4704908;30;20131;-81
2022/06/11 02:59:34;;;;;;;5.95;1.67;;;19.10;71.40;;;;;;4706747;30;20410;-80
2022/06/11 03:02:03;;;;;;;4.40;1.10;;;19.10;71.40;;;;;;4705535;30;20096;-80
2022/06/11 03:04:33;;;;;;;5.20;1.80;;;19.10;71.40;;;;;;4691584;30;20049;-80
2022/06/11 03:07:00;;;;;;;5.35;1.70;;;19.10;71.30;;;;;;4706221;30;20056;-80
2022/06/11 03:09:30;;;;;;;6.57;2.00;;;19.10;71.30;;;;;;4706145;30;20045;-80
2022/06/11 03:11:58;;;;;;;5.72;1.70;;;19.10;71.30;;;;;;4705865;30;20441;-80
2022/06/11 03:14:27;;;;;;;4.15;1.55;;;19.10;71.40;;;;;;4706030;30;20053;-80
2022/06/11 03:16:57;;;;;;;5.30;2.10;;;19.00;71.40;;;;;;4706471;30;20056;-80
2022/06/11 03:19:29;;;;;;;5.97;1.58;;;19.00;71.40;;;;;;4706763;30;20049;-80
2022/06/11 03:21:57;;;;;;;6.55;1.83;;;19.00;71.30;;;;;;4705505;30;20399;-80
2022/06/11 03:24:28;;;;;;;8.27;2.15;;;19.00;71.20;;;;;;4706263;30;20123;-81
2022/06/11 03:26:54;;;;;;;5.05;1.90;;;19.00;71.20;;;;;;4705972;30;20087;-81
2022/06/11 03:29:25;;;;;;;7.55;2.00;;;19.00;71.20;;;;;;4720295;30;20049;-80
2022/06/11 03:31:52;;;;;;;7.00;1.92;;;19.00;71.30;;;;;;4705433;30;20087;-81
2022/06/11 03:34:21;;;;;;;6.85;2.03;;;19.00;71.30;;;;;;4705700;30;20044;-81
2022/06/11 03:36:50;;;;;;;6.40;1.88;;;19.00;71.30;;;;;;4734779;30;20057;-81
2022/06/11 03:39:25;;;;;;;5.57;1.90;;;19.00;71.30;;;;;;4705912;30;20442;-80
2022/06/11 03:41:54;;;;;;;5.38;1.80;;;19.00;71.30;;;;;;4704930;30;20060;-81
2022/06/11 03:44:26;;;;;;;9.80;1.92;;;19.00;71.40;;;;;;4691519;30;20048;-80
2022/06/11 03:47:00;;;;;;;7.00;1.80;;;19.00;71.30;;;;;;4692422;30;20053;-81
2022/06/11 03:49:26;;;;;;;6.70;1.98;;;19.00;71.30;;;;;;4713650;30;20061;-81
2022/06/11 03:51:52;;;;;;;7.22;2.20;;;19.00;71.30;;;;;;4704558;30;20079;-80
2022/06/11 03:54:18;;;;;;;7.05;2.22;;;19.00;71.30;;;;;;4719608;30;20049;-80
2022/06/11 03:56:47;;;;;;;6.97;2.05;;;19.00;71.30;;;;;;4719820;30;20059;-80
2022/06/11 03:59:14;;;;;;;6.05;1.88;;;19.00;71.30;;;;;;4734866;30;20447;-81
2022/06/11 04:01:44;;;;;;;6.43;1.90;;;18.90;71.30;;;;;;4728302;30;20131;-80
2022/06/11 04:04:13;;;;;;;5.50;1.77;;;18.90;71.40;;;;;;4707830;30;20099;-80
2022/06/11 04:06:56;;;;;;;7.40;1.90;;;18.90;71.30;;;;;;4707524;30;20473;-81
2022/06/11 04:09:42;;;;;;;7.25;2.15;;;19.00;71.30;;;;;;4708104;30;20057;-82
2022/06/11 04:12:11;;;;;;;9.40;2.17;;;18.90;71.30;;;;;;4708211;30;20095;-80
2022/06/11 04:14:38;;;;;;;11.20;2.80;;;19.00;71.40;;;;;;4707990;30;20425;-80
2022/06/11 04:17:13;;;;;;;7.40;2.28;;;19.00;71.40;;;;;;4707698;30;20049;-80
2022/06/11 04:19:42;;;;;;;7.40;1.90;;;19.00;71.30;;;;;;4708682;30;20044;-81
2022/06/11 04:22:08;;;;;;;10.30;2.40;;;19.00;71.30;;;;;;4707499;30;20044;-81
2022/06/11 04:24:35;;;;;;;7.57;2.38;;;18.90;71.30;;;;;;4707864;30;20063;-81
2022/06/11 04:27:04;;;;;;;7.03;2.03;;;19.00;71.30;;;;;;4707941;30;20048;-80
2022/06/11 04:29:36;;;;;;;10.20;1.60;;;19.00;71.30;;;;;;4737950;30;20052;-81
2022/06/11 04:32:05;;;;;;;7.85;2.42;;;19.00;71.30;;;;;;4706864;30;20045;-80
2022/06/11 04:34:34;;;;;;;6.45;2.10;;;18.90;71.20;;;;;;4707664;30;20131;-81
2022/06/11 04:37:01;;;;;;;7.07;2.03;;;18.90;71.20;;;;;;4708351;30;20114;-82
2022/06/11 04:39:30;;;;;;;5.85;1.77;;;18.90;71.30;;;;;;4722308;30;20369;-81
2022/06/11 04:42:01;;;;;;;7.17;2.10;;;18.90;71.30;;;;;;4707557;30;20550;-81
2022/06/11 04:44:30;;;;;;;8.60;2.53;;;18.90;71.20;;;;;;4708062;30;20361;-82
2022/06/11 04:46:56;;;;;;;7.22;2.03;;;18.90;71.30;;;;;;4707973;30;20429;-80
2022/06/11 04:49:22;;;;;;;5.63;2.28;;;19.00;71.30;;;;;;4721744;30;20056;-81
2022/06/11 04:51:48;;;;;;;7.32;2.40;;;18.90;71.20;;;;;;4716209;30;20543;-80
2022/06/11 04:54:14;;;;;;;6.72;1.90;;;19.00;71.30;;;;;;4718581;30;20053;-80
2022/06/11 04:56:40;;;;;;;9.45;2.42;;;18.90;71.30;;;;;;4704572;30;20377;-80
2022/06/11 04:59:06;;;;;;;6.70;2.53;;;18.90;71.30;;;;;;4690278;30;20132;-80
2022/06/11 05:01:32;;;;;;;9.60;2.42;;;19.00;71.30;;;;;;4707798;30;20079;-79
2022/06/11 05:03:58;;;;;;;8.35;2.53;;;19.00;71.30;;;;;;4721564;30;20469;-79
2022/06/11 05:06:29;;;;;;;9.50;2.75;;;19.00;71.20;;;;;;4714969;30;20124;-83
2022/06/11 05:08:56;;;;;;;12.85;2.58;;;19.00;71.20;;;;;;4736885;30;20060;-79
2022/06/11 05:11:22;;;;;;;9.88;2.58;;;19.00;71.30;;;;;;4731970;30;20048;-81
2022/06/11 05:14:01;;;;;;;9.90;2.50;;;19.00;71.30;;;;;;4689609;30;20064;-81
2022/06/11 05:17:00;;;;;;;7.72;2.20;;;19.00;71.50;;;;;;4703550;30;20053;-82
2022/06/11 05:19:34;;;;;;;53.15;5.38;;;19.00;71.40;;;;;;4686782;30;20058;-84
2022/06/11 05:22:01;;;;;;;11.60;2.80;;;19.00;71.60;;;;;;4718626;30;20120;-84
2022/06/11 05:24:33;;;;;;;16.98;3.42;;;19.00;71.80;;;;;;4729966;30;20048;-82
2022/06/11 05:27:06;;;;;;;13.00;3.20;;;19.00;72.50;;;;;;4729988;30;20136;-79
2022/06/11 05:29:35;;;;;;;12.93;3.40;;;19.00;72.50;;;;;;4719114;30;20335;-77
2022/06/11 05:32:02;;;;;;;11.25;3.17;;;19.00;72.60;;;;;;4719276;30;20076;-79
2022/06/11 05:34:28;;;;;;;12.30;3.05;;;19.00;72.60;;;;;;4733496;30;20045;-79
2022/06/11 05:36:55;;;;;;;14.40;3.53;;;19.00;72.70;;;;;;4704008;30;20048;-77
2022/06/11 05:39:22;;;;;;;12.18;2.80;;;19.10;72.60;;;;;;4718195;30;20093;-78
2022/06/11 05:41:50;;;;;;;13.52;3.95;;;19.10;72.80;;;;;;4718650;30;20049;-80
2022/06/11 05:44:16;;;;;;;16.88;4.07;;;19.10;73.00;;;;;;4711145;30;20053;-79
2022/06/11 05:46:43;;;;;;;13.90;3.50;;;19.00;72.70;;;;;;4719044;30;20355;-84
2022/06/11 05:49:15;;;;;;;15.02;3.60;;;19.10;72.80;;;;;;4733947;30;20087;-76
2022/06/11 05:51:50;;;;;;;24.05;3.70;;;19.10;72.80;;;;;;4750021;30;20472;-77
2022/06/11 05:54:23;;;;;;;19.40;4.22;;;19.00;73.00;;;;;;4736146;30;20045;-80
2022/06/11 05:56:49;;;;;;;18.05;5.18;;;19.10;73.40;;;;;;4761604;30;20512;-78
2022/06/11 05:59:23;;;;;;;23.10;7.03;;;19.10;73.50;;;;;;4754232;30;20044;-76
2022/06/11 06:01:50;;;;;;;25.83;7.00;;;19.20;73.80;;;;;;4746314;30;20075;-80
2022/06/11 06:04:16;;;;;;;19.65;6.20;;;19.20;73.70;;;;;;4721044;30;20484;-78
2022/06/11 06:06:42;;;;;;;19.02;5.43;;;19.20;73.20;;;;;;4735712;30;20044;-79
2022/06/11 06:09:08;;;;;;;24.80;7.80;;;19.10;72.90;;;;;;4748327;30;20466;-79
2022/06/11 06:11:38;;;;;;;18.83;6.20;;;19.10;73.40;;;;;;4737401;30;20075;-83
2022/06/11 06:14:04;;;;;;;20.05;7.13;;;19.10;73.40;;;;;;4737672;30;20055;-82
2022/06/11 06:16:30;;;;;;;17.90;5.28;;;19.20;73.70;;;;;;4736236;30;20048;-80
2022/06/11 06:18:57;;;;;;;24.88;7.10;;;19.20;73.10;;;;;;4720941;30;20048;-76
2022/06/11 06:21:25;;;;;;;22.30;6.20;;;19.20;72.70;;;;;;4753245;30;20055;-76
2022/06/11 06:23:52;;;;;;;25.50;7.10;;;19.20;71.90;;;;;;4738446;30;20057;-74
2022/06/11 06:26:18;;;;;;;18.85;5.90;;;19.30;71.70;;;;;;4736303;30;20376;-76
2022/06/11 06:28:44;;;;;;;22.25;6.85;;;19.30;71.70;;;;;;4748133;30;20098;-80
2022/06/11 06:31:15;;;;;;;21.50;5.47;;;19.30;71.40;;;;;;4734221;30;20077;-76
2022/06/11 06:33:44;;;;;;;21.00;4.53;;;19.30;71.60;;;;;;4739583;30;20048;-76
2022/06/11 06:36:10;;;;;;;17.45;4.07;;;19.40;71.30;;;;;;4739431;30;20084;-79
2022/06/11 06:38:38;;;;;;;21.25;5.70;;;19.40;70.70;;;;;;4738650;30;20044;-76
2022/06/11 06:41:04;;;;;;;17.55;3.78;;;19.40;70.20;;;;;;4733831;30;20354;-75
2022/06/11 06:43:31;;;;;;;18.63;4.32;;;19.50;69.80;;;;;;4737769;30;20048;-79
2022/06/11 06:45:56;;;;;;;19.75;4.10;;;19.50;69.30;;;;;;4723444;30;20048;-77
2022/06/11 06:48:22;;;;;;;22.83;5.13;;;19.50;69.10;;;;;;4714914;30;20434;-76
2022/06/11 06:50:48;;;;;;;17.42;4.35;;;19.50;69.00;;;;;;4701399;30;20373;-79
2022/06/11 06:53:14;;;;;;;20.42;5.13;;;19.50;69.50;;;;;;4723425;30;20113;-80
2022/06/11 06:55:40;;;;;;;25.77;4.65;;;19.50;69.00;;;;;;4738989;30;20362;-79
2022/06/11 06:58:06;;;;;;;19.05;4.00;;;19.50;68.20;;;;;;4739057;30;20040;-79
2022/06/11 07:00:32;;;;;;;24.88;4.75;;;19.40;68.60;;;;;;4727325;30;20363;-81
2022/06/11 07:02:58;;;;;;;27.38;4.68;;;19.40;68.40;;;;;;4708737;30;20138;-82
2022/06/11 07:05:25;;;;;;;16.85;4.30;;;19.40;68.10;;;;;;4708214;30;20057;-78
2022/06/11 07:07:52;;;;;;;16.20;3.90;;;19.30;68.30;;;;;;4738690;30;20053;-78
2022/06/11 07:10:19;;;;;;;15.18;4.32;;;19.30;68.80;;;;;;4739007;30;20056;-76
2022/06/11 07:12:45;;;;;;;16.48;3.83;;;19.30;69.10;;;;;;4753856;30;20056;-77
2022/06/11 07:15:11;;;;;;;14.55;3.60;;;19.30;69.20;;;;;;4737393;30;20392;-81
2022/06/11 07:17:42;;;;;;;20.17;5.03;;;19.30;69.00;;;;;;4723521;30;20502;-80
2022/06/11 07:20:15;;;;;;;20.08;4.78;;;19.30;68.30;;;;;;4738503;30;20076;-78
2022/06/11 07:22:51;;;;;;;16.48;3.72;;;19.30;68.10;;;;;;4738718;30;20036;-77
2022/06/11 07:25:17;;;;;;;16.52;4.25;;;19.30;67.80;;;;;;4738695;30;20101;-74
2022/06/11 07:27:49;;;;;;;16.35;3.88;;;19.30;68.20;;;;;;4738726;30;20474;-77
2022/06/11 07:30:21;;;;;;;14.90;3.50;;;19.30;68.30;;;;;;4738350;30;20102;-76
2022/06/11 07:32:51;;;;;;;15.55;4.22;;;19.40;68.90;;;;;;4738305;30;20141;-78
2022/06/11 07:35:18;;;;;;;19.15;3.83;;;19.30;68.50;;;;;;4738608;30;20102;-77
2022/06/11 07:37:45;;;;;;;13.38;3.53;;;19.30;68.80;;;;;;4720267;30;20049;-78
2022/06/11 07:40:11;;;;;;;15.30;3.55;;;19.40;69.00;;;;;;4720877;30;20063;-77
2022/06/11 07:42:37;;;;;;;16.38;4.40;;;19.40;68.70;;;;;;4737906;30;20398;-79
2022/06/11 07:45:03;;;;;;;12.57;3.50;;;19.40;68.20;;;;;;4723220;30;20166;-78
2022/06/11 07:50:14;;;;;;;15.80;3.83;;;19.40;68.20;;;;;;4722371;30;20065;-75
2022/06/11 07:52:41;;;;;;;18.75;3.90;;;19.40;68.60;;;;;;4737873;30;20060;-73
2022/06/11 07:55:08;;;;;;;11.10;2.95;;;19.50;68.70;;;;;;4737719;30;20190;-73
2022/06/11 07:57:34;;;;;;;13.73;3.83;;;19.50;69.00;;;;;;4738013;30;20056;-77
2022/06/11 08:00:01;;;;;;;17.45;3.88;;;19.50;69.00;;;;;;4722626;30;20164;-74
2022/06/11 08:02:26;;;;;;;13.23;3.88;;;19.60;68.80;;;;;;4737875;30;20049;-74
2022/06/11 08:04:52;;;;;;;14.23;3.25;;;19.60;68.70;;;;;;4737845;30;20076;-76
2022/06/11 08:07:19;;;;;;;13.98;3.60;;;19.60;68.70;;;;;;4722924;30;20099;-75
2022/06/11 08:09:44;;;;;;;14.65;3.25;;;19.60;68.90;;;;;;4737645;30;20056;-76
2022/06/11 08:12:10;;;;;;;14.65;3.70;;;19.70;69.20;;;;;;4738062;30;20460;-76
2022/06/11 08:14:36;;;;;;;16.60;3.30;;;19.70;69.00;;;;;;4737618;30;20128;-75
2022/06/11 08:17:02;;;;;;;13.02;3.20;;;19.70;68.30;;;;;;4737718;30;20048;-73
2022/06/11 08:19:28;;;;;;;16.00;3.22;;;19.70;67.40;;;;;;4737748;30;20516;-76
2022/06/11 08:21:56;;;;;;;10.85;3.17;;;19.60;66.70;;;;;;4722157;30;20338;-74
2022/06/11 08:24:22;;;;;;;14.52;4.35;;;19.70;67.50;;;;;;4737498;30;20437;-75
2022/06/11 08:26:48;;;;;;;16.25;3.03;;;19.70;68.10;;;;;;4737617;30;20058;-75
2022/06/11 08:29:14;;;;;;;12.52;3.47;;;19.70;68.20;;;;;;4722314;30;20060;-75
2022/06/11 08:31:39;;;;;;;11.38;3.58;;;19.70;68.30;;;;;;4738940;30;20092;-76
2022/06/11 08:34:05;;;;;;;13.55;3.08;;;19.80;68.50;;;;;;4738605;30;20088;-76
2022/06/11 08:36:31;;;;;;;10.70;3.10;;;19.80;68.50;;;;;;4738024;30;20095;-76
2022/06/11 08:38:57;;;;;;;10.15;2.85;;;19.90;68.60;;;;;;4748943;30;20369;-81
2022/06/11 08:41:30;;;;;;;9.15;2.25;;;19.80;68.50;;;;;;4738868;30;20136;-79
2022/06/11 08:44:02;;;;;;;11.77;2.50;;;19.90;68.60;;;;;;4752187;30;20068;-78
2022/06/11 08:46:35;;;;;;;10.80;2.75;;;19.90;68.60;;;;;;4744551;30;20084;-79
2022/06/11 08:49:04;;;;;;;13.98;3.05;;;19.90;68.60;;;;;;4754898;30;20472;-80
2022/06/11 08:51:45;;;;;;;9.75;2.97;;;19.90;68.60;;;;;;4746375;30;20052;-78
2022/06/11 08:54:18;;;;;;;12.95;2.88;;;20.00;68.90;;;;;;4738296;30;20059;-82
2022/06/11 08:57:06;;;;;;;10.32;3.22;;;20.00;68.90;;;;;;4753366;30;20107;-79
2022/06/11 09:00:02;;;;;;;7.72;2.58;;;20.00;69.10;;;;;;4750126;30;20110;-80
2022/06/11 09:02:46;;;;;;;9.63;2.40;;;20.00;69.00;;;;;;4726317;30;20060;-80
2022/06/11 09:05:27;;;;;;;9.07;2.92;;;20.00;69.00;;;;;;4721529;30;20473;-82
2022/06/11 09:08:21;;;;;;;9.30;2.42;;;20.00;69.20;;;;;;4747628;30;20448;-79
2022/06/11 09:11:08;;;;;;;12.50;2.75;;;20.00;69.20;;;;;;4754516;30;20068;-79
2022/06/11 09:13:56;;;;;;;11.20;2.45;;;20.10;69.20;;;;;;4746708;30;20103;-80
2022/06/11 09:16:41;;;;;;;8.43;3.10;;;20.10;69.10;;;;;;4736867;30;20056;-80
2022/06/11 09:19:33;;;;;;;9.55;3.13;;;20.10;69.30;;;;;;4719350;30;20170;-78
2022/06/11 09:22:10;;;;;;;12.07;2.95;;;20.10;69.20;;;;;;4721887;30;20147;-78
2022/06/11 09:24:41;;;;;;;6.75;2.22;;;20.10;69.20;;;;;;4721524;30;20154;-80
2022/06/11 09:27:29;;;;;;;8.50;2.47;;;20.10;69.20;;;;;;4726821;30;20060;-78
2022/06/11 09:30:07;;;;;;;7.05;2.55;;;20.10;69.30;;;;;;4750069;30;20057;-80
2022/06/11 09:32:36;;;;;;;6.72;2.10;;;20.10;69.20;;;;;;4737489;30;20056;-79
2022/06/11 09:35:11;;;;;;;7.35;2.20;;;20.10;69.20;;;;;;4767432;30;20062;-81
2022/06/11 09:37:47;;;;;;;6.63;1.85;;;20.20;69.30;;;;;;4738650;30;20127;-81
2022/06/11 09:40:25;;;;;;;9.77;2.88;;;20.20;69.30;;;;;;4738457;30;20064;-81
2022/06/11 09:43:12;;;;;;;8.02;2.03;;;20.20;69.40;;;;;;4732044;30;20487;-78
2022/06/11 09:46:08;;;;;;;10.18;2.78;;;20.20;69.20;;;;;;4736450;30;20071;-80
2022/06/11 09:48:40;;;;;;;6.82;2.03;;;20.20;69.20;;;;;;4741717;30;20125;-81
2022/06/11 09:51:20;;;;;;;9.23;2.58;;;20.20;69.00;;;;;;4753147;30;20052;-79
2022/06/11 09:54:34;;;;;;;10.02;2.92;;;20.20;68.50;;;;;;4753870;30;20471;-82
2022/06/11 09:57:02;;;;;;;9.98;1.75;;;20.10;68.50;;;;;;4736060;30;20068;-82
2022/06/11 09:59:37;;;;;;;8.60;2.20;;;20.10;68.20;;;;;;4721404;30;20476;-82
2022/06/11 10:02:18;;;;;;;7.13;2.22;;;20.10;68.10;;;;;;4743367;30;20460;-79
2022/06/11 10:04:46;;;;;;;8.60;2.22;;;20.10;67.80;;;;;;4736911;30;20056;-80
2022/06/11 10:07:28;;;;;;;11.48;2.03;;;20.10;67.80;;;;;;4757510;30;20067;-77
2022/06/11 10:10:24;;;;;;;8.57;2.45;;;20.20;67.80;;;;;;4727151;30;20052;-81
2022/06/11 10:12:56;;;;;;;8.30;2.22;;;20.20;68.10;;;;;;4730610;30;20380;-79
2022/06/11 10:15:31;;;;;;;10.27;1.98;;;20.20;67.40;;;;;;4757562;30;20063;-79
2022/06/11 10:18:19;;;;;;;10.88;3.00;;;20.20;67.40;;;;;;4757143;30;20070;-84
2022/06/11 10:20:58;;;;;;;12.32;2.60;;;20.20;67.50;;;;;;4757635;30;20115;-80
2022/06/11 10:23:36;;;;;;;5.38;2.10;;;20.20;67.60;;;;;;4725208;30;20127;-80
2022/06/11 10:26:10;;;;;;;8.02;2.08;;;20.20;67.50;;;;;;4740452;30;20045;-81
2022/06/11 10:28:55;;;;;;;9.05;2.20;;;20.20;67.60;;;;;;4756290;30;20044;-79
2022/06/11 10:31:31;;;;;;;7.03;2.10;;;20.20;67.50;;;;;;4739903;30;20051;-83
2022/06/11 10:34:13;;;;;;;7.18;1.65;;;20.20;67.60;;;;;;4741262;30;20052;-82
2022/06/11 10:36:46;;;;;;;8.15;2.15;;;20.20;67.50;;;;;;4729393;30;20048;-83
2022/06/11 10:39:30;;;;;;;8.25;1.75;;;20.20;67.60;;;;;;4739302;30;20044;-82
2022/06/11 10:42:09;;;;;;;7.68;1.80;;;20.20;67.60;;;;;;4728407;30;20457;-82
2022/06/11 10:44:49;;;;;;;5.88;1.88;;;20.20;67.70;;;;;;4731469;30;20052;-81
2022/06/11 10:47:20;;;;;;;6.90;1.77;;;20.30;67.70;;;;;;4752782;30;20049;-82
2022/06/11 10:49:50;;;;;;;8.15;2.10;;;20.30;67.80;;;;;;4739434;30;20385;-80
2022/06/11 10:52:38;;;;;;;8.05;1.80;;;20.20;67.70;;;;;;4746050;30;20060;-81
2022/06/11 10:55:08;;;;;;;6.18;1.70;;;20.20;67.80;;;;;;4756627;30;20048;-83
2022/06/11 10:57:36;;;;;;;5.20;1.70;;;20.30;67.80;;;;;;4739784;30;20048;-82
2022/06/11 11:00:14;;;;;;;6.68;2.05;;;20.30;67.80;;;;;;4727161;30;20060;-79
2022/06/11 11:02:56;;;;;;;7.22;2.08;;;20.30;67.80;;;;;;4740814;30;20503;-82
2022/06/11 11:05:22;;;;;;;7.05;1.58;;;20.30;67.80;;;;;;4738174;30;20077;-81
2022/06/11 11:07:54;;;;;;;5.88;1.58;;;20.20;67.80;;;;;;4738718;30;20485;-81
2022/06/11 11:10:34;;;;;;;7.38;1.77;;;20.20;67.80;;;;;;4738303;30;20092;-82
2022/06/11 11:13:15;;;;;;;8.90;2.25;;;20.30;67.80;;;;;;4751065;30;20116;-79
2022/06/11 11:15:45;;;;;;;8.77;2.08;;;20.30;67.90;;;;;;4741671;30;20052;-79
2022/06/11 11:18:23;;;;;;;7.93;1.88;;;20.30;67.90;;;;;;4739792;30;20048;-79
2022/06/11 11:20:53;;;;;;;6.85;1.92;;;20.30;67.90;;;;;;4740181;30;20044;-80
2022/06/11 11:23:33;;;;;;;5.63;1.60;;;20.30;67.90;;;;;;4725847;30;20130;-80
2022/06/11 11:26:16;;;;;;;6.28;1.85;;;20.30;68.00;;;;;;4726107;30;20047;-80
2022/06/11 11:28:50;;;;;;;5.95;1.90;;;20.30;67.90;;;;;;4731375;30;20140;-80
2022/06/11 11:31:28;;;;;;;6.05;1.67;;;20.30;68.00;;;;;;4722520;30;20411;-82
2022/06/11 11:34:09;;;;;;;7.85;1.90;;;20.30;68.00;;;;;;4767888;30;20368;-81
2022/06/11 11:36:37;;;;;;;8.13;1.92;;;20.30;67.90;;;;;;4731423;30;20061;-80
2022/06/11 11:39:23;;;;;;;7.00;1.83;;;20.30;68.00;;;;;;4752233;30;20495;-79
2022/06/11 11:42:06;;;;;;;31.60;3.47;;;20.30;66.50;;;;;;4740734;30;20052;-72
2022/06/11 11:44:39;;;;;;;9.05;2.20;;;20.30;65.20;;;;;;4748954;30;20048;-76
2022/06/11 11:47:19;;;;;;;9.80;1.80;;;20.20;66.60;;;;;;4738141;30;20201;-80
2022/06/11 11:50:13;;;;;;;9.30;2.28;;;20.20;66.30;;;;;;4715213;30;20056;-80
2022/06/11 11:52:45;;;;;;;12.65;2.45;;;20.20;66.50;;;;;;4710272;30;20056;-81
2022/06/11 11:55:19;;;;;;;7.35;2.45;;;20.20;66.00;;;;;;4719223;30;20052;-79
2022/06/11 11:58:01;;;;;;;11.38;2.35;;;20.20;65.50;;;;;;4707504;30;20059;-79
2022/06/11 12:00:40;;;;;;;8.80;2.05;;;20.20;65.40;;;;;;4721744;30;20492;-82
2022/06/11 12:03:29;;;;;;;12.93;2.88;;;20.20;65.40;;;;;;4737006;30;20473;-79
2022/06/11 12:05:58;;;;;;;6.97;2.28;;;20.20;65.30;;;;;;4722022;30;20131;-77
2022/06/11 12:08:36;;;;;;;7.55;2.67;;;20.20;65.30;;;;;;4722444;30;20082;-82
2022/06/11 12:11:05;;;;;;;14.48;2.90;;;20.20;65.70;;;;;;4737849;30;20475;-82
2022/06/11 12:13:39;;;;;;;14.43;2.70;;;20.20;65.90;;;;;;4750731;30;20064;-78
2022/06/11 12:16:06;;;;;;;13.30;2.38;;;20.30;66.10;;;;;;4721691;30;20072;-79
2022/06/11 12:18:42;;;;;;;18.40;3.60;;;20.30;66.40;;;;;;4707813;30;20045;-79
2022/06/11 12:21:19;;;;;;;18.10;3.05;;;20.30;66.50;;;;;;4737665;30;20423;-81
2022/06/11 12:24:16;;;;;;;12.38;2.92;;;20.30;66.70;;;;;;4736027;30;20044;-74
2022/06/11 12:26:48;;;;;;;11.05;3.53;;;20.30;66.30;;;;;;4737795;30;20437;-78
2022/06/11 12:29:55;;;;;;;13.75;2.95;;;20.30;66.10;;;;;;4737341;30;20048;-82
2022/06/11 12:32:23;;;;;;;17.10;3.50;;;20.40;66.20;;;;;;4662079;30;20054;-79
2022/06/11 12:34:51;;;;;;;15.20;2.83;;;20.40;66.60;;;;;;4666562;30;20058;-79
2022/06/11 12:37:20;;;;;;;16.83;3.08;;;20.40;66.90;;;;;;4707511;30;20221;-80
2022/06/11 12:40:23;;;;;;;10.05;2.42;;;20.40;67.10;;;;;;4729860;30;20074;-80
2022/06/11 12:42:49;;;;;;;13.00;2.75;;;20.40;67.10;;;;;;4705980;30;20136;-82
2022/06/11 12:45:16;;;;;;;16.88;3.53;;;20.40;67.00;;;;;;4721264;30;20135;-81
2022/06/11 12:48:07;;;;;;;13.85;3.60;;;20.40;66.80;;;;;;4721863;30;20041;-81
2022/06/11 12:50:42;;;;;;;14.70;2.65;;;20.40;67.00;;;;;;4747266;30;20080;-81
2022/06/11 12:53:40;;;;;;;12.35;2.85;;;20.40;66.60;;;;;;4765536;30;20057;-80
2022/06/11 15:30:49;;;;;;;14.80;3.10;;;20.60;67.60;;;;;;4882907;24;20063;-77
2022/06/11 15:33:28;;;;;;;14.45;2.97;;;20.60;67.70;;;;;;4759423;30;20056;-74
2022/06/11 15:36:06;;;;;;;12.68;3.38;;;20.60;67.60;;;;;;4756876;30;20040;-80
2022/06/11 15:38:50;;;;;;;16.83;4.00;;;20.60;67.70;;;;;;4756119;30;20060;-77
2022/06/11 15:41:43;;;;;;;18.65;4.25;;;20.60;67.70;;;;;;4754893;30;20376;-79
2022/06/11 15:44:20;;;;;;;14.52;3.28;;;20.70;68.20;;;;;;4755507;30;20055;-74
2022/06/11 15:47:28;;;;;;;17.48;4.07;;;20.70;68.20;;;;;;4756080;30;20048;-78
2022/06/11 15:50:03;;;;;;;13.65;3.20;;;20.70;68.60;;;;;;4699172;30;20046;-75
2022/06/11 15:52:38;;;;;;;13.05;3.13;;;20.70;68.90;;;;;;4755555;30;20051;-74
2022/06/11 15:55:32;;;;;;;13.30;3.67;;;20.70;69.30;;;;;;4768960;30;20144;-78
2022/06/11 15:58:18;;;;;;;16.10;3.30;;;20.80;70.40;;;;;;4755740;30;20469;-76
2022/06/11 16:00:59;;;;;;;12.60;3.40;;;20.80;70.40;;;;;;4762581;30;20126;-80